createdAt,value
2018-09-01T00:01:16.633Z,4.32
2018-09-01T00:03:46.930Z,4.45
2018-09-01T00:06:18.609Z,4.40
2018-09-01T00:08:47.424Z,4.22
2018-09-01T00:11:18.016Z,4.60
2018-09-01T00:13:47.418Z,4.07
2018-09-01T00:16:19.021Z,4.50
2018-09-01T00:18:51.334Z,4.45
2018-09-01T00:21:21.733Z,4.12
2018-09-01T00:23:52.052Z,4.15
2018-09-01T00:26:20.880Z,4.07
2018-09-01T00:28:52.402Z,3.62
2018-09-01T00:31:22.810Z,5.07
2018-09-01T00:33:51.503Z,4.28
2018-09-01T00:36:21.668Z,4.53
2018-09-01T00:39:08.078Z,4.18
2018-09-01T00:41:38.780Z,4.15
2018-09-01T00:44:10.642Z,3.80
2018-09-01T00:46:41.973Z,3.87
2018-09-01T00:49:13.678Z,3.92
2018-09-01T00:51:45.827Z,3.72
2018-09-01T00:54:16.197Z,4.05
2018-09-01T00:56:48.056Z,4.53
2018-09-01T00:59:18.401Z,3.75
2018-09-01T01:01:48.594Z,4.22
2018-09-01T01:04:19.055Z,4.68
2018-09-01T01:06:51.020Z,4.35
2018-09-01T01:09:22.877Z,3.87
2018-09-01T01:11:53.376Z,3.75
2018-09-01T01:14:26.143Z,3.75
2018-09-01T01:16:56.936Z,4.03
2018-09-01T01:19:28.532Z,3.92
2018-09-01T01:21:59.821Z,4.00
2018-09-01T01:24:30.220Z,3.90
2018-09-01T01:27:00.494Z,3.67
2018-09-01T01:29:30.675Z,3.83
2018-09-01T01:32:02.677Z,4.68
2018-09-01T01:34:34.684Z,4.45
2018-09-01T01:37:05.222Z,4.10
2018-09-01T01:39:37.198Z,4.45
2018-09-01T01:42:07.574Z,3.97
2018-09-01T01:44:38.037Z,3.90
2018-09-01T01:47:08.327Z,3.70
2018-09-01T01:49:38.710Z,5.37
2018-09-01T01:52:09.231Z,5.40
2018-09-01T01:54:40.994Z,6.12
2018-09-01T01:57:11.267Z,5.80
2018-09-01T01:59:42.069Z,6.30
2018-09-01T02:02:13.065Z,6.20
2018-09-01T02:04:41.903Z,6.40
2018-09-01T02:07:10.762Z,6.25
2018-09-01T02:09:40.937Z,4.57
2018-09-01T02:12:10.296Z,3.70
2018-09-01T02:14:40.526Z,5.90
2018-09-01T02:17:10.859Z,4.72
2018-09-01T02:19:41.055Z,4.32
2018-09-01T02:22:11.765Z,3.35
2018-09-01T02:24:42.285Z,3.17
2018-09-01T02:27:12.688Z,4.00
2018-09-01T02:29:44.312Z,3.50
2018-09-01T02:32:14.684Z,3.12
2018-09-01T02:34:45.140Z,2.72
2018-09-01T02:37:15.708Z,3.75
2018-09-01T02:39:46.558Z,3.53
2018-09-01T02:42:17.439Z,2.67
2018-09-01T02:44:47.881Z,2.28
2018-09-01T02:47:18.033Z,1.90
2018-09-01T02:49:48.340Z,2.00
2018-09-01T02:52:18.814Z,2.05
2018-09-01T02:54:50.726Z,4.95
2018-09-01T02:57:19.379Z,1.90
2018-09-01T02:59:50.064Z,3.08
2018-09-01T03:02:37.876Z,3.42
2018-09-01T03:05:09.672Z,4.62
2018-09-01T03:07:39.853Z,3.70
2018-09-01T03:10:08.507Z,2.90
2018-09-01T03:12:40.620Z,3.47
2018-09-01T03:15:11.236Z,3.55
2018-09-01T03:17:43.085Z,3.65
2018-09-01T03:20:13.434Z,4.47
2018-09-01T03:22:43.548Z,4.55
2018-09-01T03:25:13.801Z,3.37
2018-09-01T03:27:44.226Z,3.35
2018-09-01T03:30:13.605Z,3.60
2018-09-01T03:32:45.169Z,3.70
2018-09-01T03:35:16.853Z,4.15
2018-09-01T03:37:48.853Z,3.95
2018-09-01T03:40:17.556Z,4.00
2018-09-01T03:42:48.526Z,3.30
2018-09-01T03:45:21.284Z,3.45
2018-09-01T03:47:53.693Z,2.83
2018-09-01T03:50:25.482Z,2.50
2018-09-01T03:52:57.207Z,1.77
2018-09-01T03:55:27.843Z,1.15
2018-09-01T03:57:59.749Z,1.65
2018-09-01T04:00:30.442Z,2.42
2018-09-01T04:03:02.039Z,3.05
2018-09-01T04:05:33.958Z,2.75
2018-09-01T04:08:03.846Z,3.20
2018-09-01T04:10:36.867Z,4.65
2018-09-01T04:13:07.044Z,4.07
2018-09-01T04:15:39.283Z,3.75
2018-09-01T04:18:09.452Z,3.95
2018-09-01T04:20:39.620Z,5.05
2018-09-01T04:23:11.371Z,4.00
2018-09-01T04:25:43.236Z,3.42
2018-09-01T04:28:11.102Z,3.17
2018-09-01T04:30:41.842Z,3.70
2018-09-01T04:33:12.513Z,3.65
2018-09-01T04:35:42.906Z,3.65
2018-09-01T04:38:13.211Z,2.65
2018-09-01T04:40:43.505Z,2.10
2018-09-01T04:43:13.077Z,3.30
2018-09-01T04:45:45.130Z,3.20
2018-09-01T04:48:15.234Z,3.20
2018-09-01T04:50:45.398Z,3.12
2018-09-01T04:53:14.059Z,3.80
2018-09-01T04:55:45.918Z,3.47
2018-09-01T04:58:14.699Z,2.15
2018-09-01T05:00:46.427Z,1.77
2018-09-01T05:03:16.842Z,1.70
2018-09-01T05:05:47.095Z,2.22
2018-09-01T05:08:18.036Z,2.12
2018-09-01T05:10:49.628Z,1.77
2018-09-01T05:13:21.350Z,1.37
2018-09-01T05:15:51.917Z,1.87
2018-09-01T05:18:23.594Z,1.50
2018-09-01T05:20:54.645Z,1.95
2018-09-01T05:23:26.365Z,1.85
2018-09-01T05:25:57.944Z,1.70
2018-09-01T05:28:28.285Z,1.73
2018-09-01T05:30:58.866Z,1.80
2018-09-01T05:33:29.013Z,1.30
2018-09-01T05:36:01.009Z,1.30
2018-09-01T05:38:31.657Z,2.00
2018-09-01T05:41:03.489Z,2.97
2018-09-01T05:43:33.751Z,1.70
2018-09-01T05:46:04.185Z,2.95
2018-09-01T05:48:35.855Z,4.35
2018-09-01T05:51:06.247Z,3.80
2018-09-01T05:53:37.357Z,3.62
2018-09-01T05:56:09.125Z,3.72
2018-09-01T05:58:41.426Z,3.67
2018-09-01T06:01:11.752Z,3.92
2018-09-01T06:03:41.822Z,3.87
2018-09-01T06:06:10.902Z,3.92
2018-09-01T06:08:41.370Z,4.12
2018-09-01T06:11:11.476Z,3.80
2018-09-01T06:13:43.633Z,4.30
2018-09-01T06:16:13.128Z,4.55
2018-09-01T06:18:42.392Z,4.35
2018-09-01T06:21:13.960Z,4.03
2018-09-01T06:23:44.135Z,4.53
2018-09-01T06:26:14.232Z,4.97
2018-09-01T06:28:47.954Z,5.03
2018-09-01T06:31:19.138Z,4.65
2018-09-01T06:33:47.812Z,4.90
2018-09-01T06:36:16.667Z,4.93
2018-09-01T06:38:48.261Z,4.95
2018-09-01T06:41:18.322Z,4.65
2018-09-01T06:43:48.864Z,4.43
2018-09-01T06:46:19.008Z,4.70
2018-09-01T06:48:49.061Z,4.18
2018-09-01T06:51:21.458Z,4.55
2018-09-01T06:53:51.677Z,4.80
2018-09-01T06:56:23.379Z,4.65
2018-09-01T06:58:53.773Z,4.75
2018-09-01T07:01:22.399Z,4.82
2018-09-01T07:03:51.700Z,4.10
2018-09-01T07:06:20.768Z,3.95
2018-09-01T07:08:49.857Z,3.78
2018-09-01T07:11:21.350Z,3.67
2018-09-01T07:13:53.180Z,3.83
2018-09-01T07:16:23.566Z,4.47
2018-09-01T07:18:53.934Z,4.15
2018-09-01T07:21:25.899Z,6.40
2018-09-01T07:23:54.684Z,6.30
2018-09-01T07:26:26.484Z,4.57
2018-09-01T07:28:58.090Z,5.50
2018-09-01T07:31:29.171Z,5.37
2018-09-01T07:33:58.863Z,4.00
2018-09-01T07:36:30.913Z,3.50
2018-09-01T07:39:01.669Z,5.90
2018-09-01T07:41:31.754Z,3.60
2018-09-01T07:44:03.756Z,4.00
2018-09-01T07:46:35.428Z,4.47
2018-09-01T07:49:04.768Z,3.62
2018-09-01T07:51:36.605Z,4.43
2018-09-01T07:54:08.464Z,5.20
2018-09-01T07:56:37.102Z,4.15
2018-09-01T07:59:05.991Z,3.87
2018-09-01T08:01:37.768Z,4.03
2018-09-01T08:04:08.062Z,3.45
2018-09-01T08:06:39.959Z,3.70
2018-09-01T08:09:13.596Z,3.53
2018-09-01T08:11:45.226Z,3.30
2018-09-01T08:14:13.893Z,4.25
2018-09-01T08:16:45.566Z,3.53
2018-09-01T08:19:14.458Z,3.72
2018-09-01T08:21:43.527Z,4.18
2018-09-01T08:24:15.057Z,4.22
2018-09-01T08:26:46.876Z,3.75
2018-09-01T08:29:18.553Z,3.78
2018-09-01T08:31:47.167Z,4.15
2018-09-01T08:34:17.605Z,3.97
2018-09-01T08:36:46.699Z,4.57
2018-09-01T08:39:16.690Z,3.85
2018-09-01T08:41:46.409Z,3.40
2018-09-01T08:44:16.590Z,3.67
2018-09-01T08:46:48.129Z,4.03
2018-09-01T08:49:18.300Z,3.50
2018-09-01T08:51:48.431Z,3.53
2018-09-01T08:54:20.056Z,3.10
2018-09-01T08:56:52.288Z,2.95
2018-09-01T08:59:22.369Z,2.90
2018-09-01T09:01:51.969Z,2.55
2018-09-01T09:04:20.657Z,2.72
2018-09-01T09:06:50.686Z,2.47
2018-09-01T09:09:22.234Z,2.70
2018-09-01T09:11:50.810Z,2.33
2018-09-01T09:14:19.315Z,2.67
2018-09-01T09:16:49.534Z,2.40
2018-09-01T09:19:19.589Z,2.80
2018-09-01T09:21:48.308Z,2.30
2018-09-01T09:24:17.620Z,2.37
2018-09-01T09:26:49.589Z,2.50
2018-09-01T09:29:18.094Z,1.98
2018-09-01T09:31:46.643Z,1.98
2018-09-01T09:34:17.715Z,2.22
2018-09-01T09:36:47.849Z,2.28
2018-09-01T09:39:18.160Z,2.30
2018-09-01T09:41:48.265Z,2.28
2018-09-01T09:44:20.681Z,2.85
2018-09-01T09:46:51.008Z,2.67
2018-09-01T09:49:21.417Z,3.10
2018-09-01T09:51:53.483Z,2.80
2018-09-01T09:54:22.335Z,2.45
2018-09-01T09:56:52.745Z,3.10
2018-09-01T09:59:22.819Z,2.53
2018-09-01T10:01:51.473Z,3.00
2018-09-01T10:04:23.108Z,2.40
2018-09-01T10:06:51.696Z,2.62
2018-09-01T10:09:21.755Z,2.40
2018-09-01T10:11:52.138Z,2.35
2018-09-01T10:14:20.928Z,2.75
2018-09-01T10:16:52.714Z,2.40
2018-09-01T10:19:23.041Z,2.33
2018-09-01T10:21:53.341Z,2.00
2018-09-01T10:24:24.998Z,2.03
2018-09-01T10:26:54.253Z,2.03
2018-09-01T10:29:25.938Z,2.30
2018-09-01T10:31:57.513Z,1.98
2018-09-01T10:34:28.591Z,2.00
2018-09-01T10:37:00.205Z,1.50
2018-09-01T10:39:29.321Z,1.58
2018-09-01T10:42:00.497Z,1.80
2018-09-01T10:44:30.716Z,1.70
2018-09-01T10:47:00.938Z,2.12
2018-09-01T10:49:32.633Z,1.85
2018-09-01T10:52:02.722Z,2.20
2018-09-01T10:54:32.771Z,2.00
2018-09-01T10:57:03.197Z,1.98
2018-09-01T10:59:32.642Z,2.17
2018-09-01T11:02:01.130Z,2.28
2018-09-01T11:04:30.397Z,1.87
2018-09-01T11:07:00.461Z,2.08
2018-09-01T11:09:32.069Z,1.87
2018-09-01T11:12:02.175Z,2.20
2018-09-01T11:14:30.770Z,2.00
2018-09-01T11:17:01.107Z,1.70
2018-09-01T11:19:29.866Z,1.92
2018-09-01T11:22:00.073Z,1.80
2018-09-01T11:24:27.822Z,2.10
2018-09-01T11:26:57.925Z,1.80
2018-09-01T11:29:29.037Z,2.05
2018-09-01T11:31:58.140Z,2.00
2018-09-01T11:34:29.871Z,2.67
2018-09-01T11:37:00.626Z,2.40
2018-09-01T11:39:30.496Z,2.08
2018-09-01T11:41:59.740Z,1.92
2018-09-01T11:44:28.315Z,1.92
2018-09-01T11:46:58.455Z,2.22
2018-09-01T11:49:28.546Z,1.80
2018-09-01T11:51:58.566Z,2.35
2018-09-01T11:54:28.842Z,1.92
2018-09-01T11:56:58.975Z,2.17
2018-09-01T11:59:29.032Z,2.22
2018-09-01T12:01:59.473Z,2.45
2018-09-01T12:04:29.738Z,2.12
2018-09-01T12:07:01.576Z,2.67
2018-09-01T12:09:33.032Z,2.55
2018-09-01T12:12:03.200Z,2.30
2018-09-01T12:14:33.407Z,2.53
2018-09-01T12:17:03.468Z,2.50
2018-09-01T12:19:33.804Z,2.00
2018-09-01T12:22:05.402Z,1.80
2018-09-01T12:24:35.557Z,1.80
2018-09-01T12:27:05.873Z,2.28
2018-09-01T12:29:34.462Z,1.85
2018-09-01T12:32:06.556Z,2.15
2018-09-01T12:34:37.409Z,2.10
2018-09-01T12:37:07.501Z,2.12
2018-09-01T12:39:37.603Z,2.60
2018-09-01T12:42:07.227Z,1.98
2018-09-01T12:44:38.791Z,2.20
2018-09-01T12:47:10.343Z,2.28
2018-09-01T12:49:42.146Z,2.60
2018-09-01T12:52:12.206Z,2.15
2018-09-01T12:54:42.235Z,2.12
2018-09-01T12:57:13.731Z,2.17
2018-09-01T12:59:44.091Z,2.05
2018-09-01T13:02:21.849Z,1.83
2018-09-01T13:04:50.959Z,2.22
2018-09-01T13:07:22.683Z,1.85
2018-09-01T13:09:52.798Z,2.42
2018-09-01T13:12:22.947Z,1.90
2018-09-01T13:14:53.004Z,1.90
2018-09-01T13:17:23.087Z,1.90
2018-09-01T13:19:51.720Z,2.55
2018-09-01T13:22:21.786Z,2.20
2018-09-01T13:24:51.860Z,1.80
2018-09-01T13:27:21.937Z,2.42
2018-09-01T13:29:52.004Z,2.30
2018-09-01T13:32:21.308Z,2.20
2018-09-01T13:34:52.998Z,1.67
2018-09-01T13:37:21.606Z,2.30
2018-09-01T13:39:51.692Z,2.58
2018-09-01T13:42:20.423Z,2.30
2018-09-01T13:44:50.402Z,2.20
2018-09-01T13:47:20.516Z,2.03
2018-09-01T13:49:50.624Z,2.25
2018-09-01T13:52:20.661Z,2.25
2018-09-01T13:54:52.684Z,3.03
2018-09-01T13:57:23.078Z,2.62
2018-09-01T13:59:51.595Z,2.42
2018-09-01T14:02:20.653Z,2.72
2018-09-01T14:04:49.342Z,2.72
2018-09-01T14:07:19.556Z,2.80
2018-09-01T14:09:51.286Z,2.72
2018-09-01T14:12:21.450Z,3.15
2018-09-01T14:14:50.157Z,4.50
2018-09-01T14:17:21.884Z,2.65
2018-09-01T14:19:52.477Z,3.17
2018-09-01T14:22:21.078Z,3.42
2018-09-01T14:24:51.466Z,2.90
2018-09-01T14:27:21.582Z,2.92
2018-09-01T14:29:52.279Z,5.97
2018-09-01T14:32:24.193Z,3.70
2018-09-01T14:34:54.339Z,1.85
2018-09-01T14:37:26.040Z,1.67
2018-09-01T14:39:57.603Z,2.55
2018-09-01T14:42:29.174Z,2.95
2018-09-01T14:45:00.750Z,1.90
2018-09-01T14:47:30.823Z,2.17
2018-09-01T14:50:00.861Z,2.25
2018-09-01T14:52:30.304Z,2.37
2018-09-01T14:54:58.897Z,2.67
2018-09-01T14:57:29.032Z,2.28
2018-09-01T14:59:59.364Z,2.05
2018-09-01T15:02:30.945Z,2.55
2018-09-01T15:05:01.199Z,2.33
2018-09-01T15:07:30.296Z,2.58
2018-09-01T15:09:58.891Z,2.45
2018-09-01T15:12:27.589Z,2.20
2018-09-01T15:14:56.436Z,2.30
2018-09-01T15:17:26.572Z,2.12
2018-09-01T15:19:55.162Z,2.30
2018-09-01T15:22:26.867Z,2.47
2018-09-01T15:24:55.422Z,2.30
2018-09-01T15:27:26.132Z,2.22
2018-09-01T15:29:56.165Z,2.03
2018-09-01T15:32:27.987Z,2.20
2018-09-01T15:34:58.800Z,2.03
2018-09-01T15:37:28.894Z,2.20
2018-09-01T15:39:58.195Z,2.30
2018-09-01T15:42:26.866Z,2.25
2018-09-01T15:44:57.241Z,2.00
2018-09-01T15:47:27.308Z,1.87
2018-09-01T15:49:57.425Z,1.65
2018-09-01T15:52:27.917Z,1.87
2018-09-01T15:54:58.159Z,2.03
2018-09-01T15:57:26.942Z,1.67
2018-09-01T15:59:57.324Z,2.12
2018-09-01T16:02:28.063Z,1.65
2018-09-01T16:04:58.261Z,2.12
2018-09-01T16:07:27.120Z,1.73
2018-09-01T16:09:57.404Z,1.40
2018-09-01T16:12:26.532Z,1.87
2018-09-01T16:14:58.452Z,2.50
2018-09-01T16:17:28.575Z,2.17
2018-09-01T16:19:59.431Z,1.90
2018-09-01T16:22:29.823Z,2.37
2018-09-01T16:25:01.378Z,1.92
2018-09-01T16:27:33.182Z,2.10
2018-09-01T16:30:04.177Z,1.85
2018-09-01T16:32:33.227Z,1.58
2018-09-01T16:35:03.876Z,1.90
2018-09-01T16:37:34.236Z,1.90
2018-09-01T16:40:02.802Z,1.62
2018-09-01T16:42:33.396Z,1.55
2018-09-01T16:45:03.289Z,1.62
2018-09-01T16:47:33.549Z,1.55
2018-09-01T16:50:05.219Z,2.10
2018-09-01T16:52:35.144Z,1.83
2018-09-01T16:55:06.804Z,1.85
2018-09-01T16:57:38.373Z,1.52
2018-09-01T17:00:07.748Z,1.40
2018-09-01T17:02:39.190Z,1.80
2018-09-01T17:05:08.070Z,1.50
2018-09-01T17:07:39.677Z,1.65
2018-09-01T17:10:11.980Z,1.35
2018-09-01T17:12:42.075Z,1.45
2018-09-01T17:15:12.222Z,1.80
2018-09-01T17:17:42.737Z,2.28
2018-09-01T17:20:13.070Z,1.40
2018-09-01T17:22:44.591Z,1.50
2018-09-01T17:25:15.007Z,1.70
2018-09-01T17:27:45.027Z,2.17
2018-09-01T17:30:16.614Z,1.75
2018-09-01T17:32:46.840Z,1.60
2018-09-01T17:35:15.548Z,2.03
2018-09-01T17:37:44.825Z,1.83
2018-09-01T17:40:14.243Z,1.70
2018-09-01T17:42:42.762Z,1.83
2018-09-01T17:45:13.065Z,1.90
2018-09-01T17:47:43.164Z,2.00
2018-09-01T17:50:13.487Z,1.98
2018-09-01T17:52:43.563Z,1.60
2018-09-01T17:55:15.362Z,1.87
2018-09-01T17:57:45.575Z,1.75
2018-09-01T18:00:15.873Z,1.87
2018-09-01T18:02:45.903Z,1.70
2018-09-01T18:05:14.417Z,2.00
2018-09-01T18:07:42.984Z,2.05
2018-09-01T18:10:13.530Z,2.00
2018-09-01T18:12:42.307Z,1.87
2018-09-01T18:15:12.439Z,1.85
2018-09-01T18:17:42.574Z,1.73
2018-09-01T18:20:12.675Z,1.73
2018-09-01T18:22:42.842Z,1.90
2018-09-01T18:25:11.562Z,1.95
2018-09-01T18:27:40.143Z,2.22
2018-09-01T18:30:11.434Z,1.90
2018-09-01T18:32:41.941Z,2.22
2018-09-01T18:35:13.235Z,2.60
2018-09-01T18:37:45.030Z,2.08
2018-09-01T18:40:15.330Z,1.90
2018-09-01T18:42:45.588Z,1.90
2018-09-01T18:45:15.715Z,2.30
2018-09-01T18:47:46.441Z,2.10
2018-09-01T18:50:16.699Z,1.92
2018-09-01T18:52:46.853Z,2.12
2018-09-01T18:55:18.731Z,1.90
2018-09-01T18:57:49.002Z,2.15
2018-09-01T19:00:20.750Z,2.37
2018-09-01T19:02:49.946Z,2.03
2018-09-01T19:05:21.066Z,1.87
2018-09-01T19:07:51.293Z,2.20
2018-09-01T19:10:23.322Z,2.40
2018-09-01T19:12:52.728Z,2.22
2018-09-01T19:15:24.481Z,2.20
2018-09-01T19:17:54.633Z,2.40
2018-09-01T19:20:25.474Z,2.87
2018-09-01T19:22:54.091Z,2.80
2018-09-01T19:25:24.669Z,2.62
2018-09-01T19:27:54.820Z,2.70
2018-09-01T19:30:23.455Z,3.28
2018-09-01T19:32:55.468Z,3.10
2018-09-01T19:35:25.828Z,2.90
2018-09-01T19:37:56.109Z,3.10
2018-09-01T19:40:27.955Z,3.20
2018-09-01T19:42:58.095Z,3.05
2018-09-01T19:45:28.345Z,3.12
2018-09-01T19:47:57.057Z,3.15
2018-09-01T19:50:27.308Z,2.78
2018-09-01T19:52:57.653Z,2.78
2018-09-01T19:55:28.041Z,2.70
2018-09-01T19:57:56.636Z,3.10
2018-09-01T20:00:26.823Z,3.58
2018-09-01T20:02:57.419Z,3.20
2018-09-01T20:05:27.729Z,2.97
2018-09-01T20:07:57.685Z,3.15
2018-09-01T20:10:28.176Z,3.15
2018-09-01T20:12:56.747Z,2.90
2018-09-01T20:15:26.788Z,3.08
2018-09-01T20:17:58.666Z,3.30
2018-09-01T20:20:28.790Z,3.10
2018-09-01T20:23:00.483Z,3.22
2018-09-01T20:25:33.039Z,3.60
2018-09-01T20:28:01.664Z,3.95
2018-09-01T20:30:31.798Z,3.67
2018-09-01T20:33:03.616Z,3.97
2018-09-01T20:35:50.773Z,3.80
2018-09-01T20:38:22.455Z,4.03
2018-09-01T20:40:52.776Z,3.92
2018-09-01T20:43:24.473Z,4.15
2018-09-01T20:45:56.218Z,5.03
2018-09-01T20:48:28.230Z,5.18
2018-09-01T20:50:58.361Z,4.93
2018-09-01T20:53:27.240Z,5.12
2018-09-01T20:55:59.090Z,5.28
2018-09-01T20:58:30.865Z,5.55
2018-09-01T21:01:00.928Z,5.90
2018-09-01T21:03:32.096Z,5.57
2018-09-01T21:06:02.964Z,5.20
2018-09-01T21:08:33.278Z,5.72
2018-09-01T21:11:05.163Z,5.57
2018-09-01T21:13:35.548Z,6.40
2018-09-01T21:16:05.656Z,6.22
2018-09-01T21:18:37.369Z,5.90
2018-09-01T21:21:09.318Z,5.80
2018-09-01T21:23:41.095Z,5.80
2018-09-01T21:26:11.455Z,5.85
2018-09-01T21:28:43.720Z,6.00
2018-09-01T21:31:15.439Z,5.97
2018-09-01T21:33:45.581Z,6.10
2018-09-01T21:36:16.187Z,5.90
2018-09-01T21:38:46.400Z,5.65
2018-09-01T21:41:16.816Z,6.12
2018-09-01T21:43:47.037Z,5.25
2018-09-01T21:46:17.251Z,5.30
2018-09-01T21:48:47.390Z,6.12
2018-09-01T21:51:19.267Z,5.82
2018-09-01T21:53:51.028Z,6.25
2018-09-01T21:56:19.626Z,6.30
2018-09-01T21:58:50.202Z,6.68
2018-09-01T22:01:39.741Z,6.40
2018-09-01T22:04:09.956Z,5.05
2018-09-01T22:06:40.236Z,5.65
2018-09-01T22:09:12.328Z,6.50
2018-09-01T22:11:42.918Z,4.85
2018-09-01T22:14:14.794Z,6.35
2018-09-01T22:16:46.436Z,4.97
2018-09-01T22:19:15.363Z,5.25
2018-09-01T22:21:47.354Z,5.20
2018-09-01T22:24:17.632Z,6.07
2018-09-01T22:26:49.340Z,6.15
2018-09-01T22:29:18.254Z,6.10
2018-09-01T22:31:50.003Z,5.03
2018-09-01T22:34:20.510Z,5.47
2018-09-01T22:36:49.333Z,5.75
2018-09-01T22:39:19.689Z,5.75
2018-09-01T22:41:50.840Z,5.12
2018-09-01T22:44:21.383Z,4.90
2018-09-01T22:46:53.102Z,6.00
2018-09-01T22:49:23.275Z,4.80
2018-09-01T22:51:53.539Z,5.62
2018-09-01T22:54:25.133Z,5.03
2018-09-01T22:56:56.661Z,4.72
2018-09-01T22:59:28.316Z,4.87
2018-09-01T23:01:58.689Z,4.35
2018-09-01T23:04:30.781Z,5.30
2018-09-01T23:07:01.251Z,4.47
2018-09-01T23:09:31.585Z,4.85
2018-09-01T23:12:00.549Z,4.55
2018-09-01T23:14:30.915Z,4.40
2018-09-01T23:16:59.791Z,4.03
2018-09-01T23:19:30.556Z,4.47
2018-09-01T23:22:02.210Z,4.10
2018-09-01T23:24:33.811Z,4.60
2018-09-01T23:27:04.159Z,4.40
2018-09-01T23:29:34.294Z,4.57
2018-09-01T23:32:06.173Z,4.65
2018-09-01T23:34:36.504Z,4.15
2018-09-01T23:37:06.934Z,4.68
2018-09-01T23:39:37.509Z,4.20
2018-09-01T23:42:07.916Z,4.22
2018-09-01T23:44:38.062Z,4.20
2018-09-01T23:47:08.295Z,3.83
2018-09-01T23:49:38.567Z,4.12
2018-09-01T23:52:10.337Z,4.22
2018-09-01T23:54:40.503Z,4.00
2018-09-01T23:57:12.129Z,4.05
2018-09-01T23:59:40.936Z,3.87
